createdAt,value
2023-05-13T00:01:57.411Z,7.50
2023-05-13T00:05:08.074Z,10.00
2023-05-13T00:08:12.102Z,8.75
2023-05-13T00:11:15.756Z,6.25
2023-05-13T00:14:19.493Z,9.00
2023-05-13T00:17:23.055Z,7.00
2023-05-13T00:20:28.017Z,9.25
2023-05-13T00:23:31.725Z,6.00
2023-05-13T00:26:35.168Z,9.50
2023-05-13T00:29:38.855Z,8.00
2023-05-13T00:32:42.490Z,7.00
2023-05-13T00:35:47.578Z,10.50
2023-05-13T00:38:54.177Z,9.50
2023-05-13T00:41:59.388Z,8.00
2023-05-13T00:45:03.187Z,7.50
2023-05-13T00:48:09.730Z,11.00
2023-05-13T00:51:14.891Z,9.25
2023-05-13T00:54:18.426Z,9.75
2023-05-13T00:57:22.573Z,13.75
2023-05-13T01:00:26.336Z,6.50
2023-05-13T01:03:36.633Z,6.50
2023-05-13T01:06:53.715Z,7.00
2023-05-13T01:10:04.875Z,12.00
2023-05-13T01:13:12.709Z,9.25
2023-05-13T01:16:23.336Z,9.00
2023-05-13T01:19:40.318Z,13.75
2023-05-13T01:22:45.380Z,6.50
2023-05-13T01:25:50.608Z,10.00
2023-05-13T01:28:54.428Z,12.00
2023-05-13T01:32:00.573Z,12.00
2023-05-13T01:35:05.445Z,12.50
2023-05-13T01:38:12.980Z,11.00
2023-05-13T01:41:16.560Z,9.50
2023-05-13T01:44:20.292Z,9.00
2023-05-13T01:47:23.816Z,9.75
2023-05-13T01:50:27.596Z,7.00
2023-05-13T01:53:32.591Z,7.50
2023-05-13T01:56:36.175Z,11.50
2023-05-13T01:59:40.014Z,9.00
2023-05-13T02:02:43.605Z,9.25
2023-05-13T02:05:47.982Z,9.50
2023-05-13T02:08:52.959Z,12.00
2023-05-13T02:11:56.601Z,11.50
2023-05-13T02:15:00.150Z,6.75
2023-05-13T02:18:03.741Z,10.00
2023-05-13T02:21:07.477Z,9.75
2023-05-13T02:24:13.857Z,10.00
2023-05-13T02:27:17.308Z,10.00
2023-05-13T02:30:21.008Z,12.25
2023-05-13T02:33:24.795Z,9.00
2023-05-13T02:36:28.712Z,11.00
2023-05-13T02:39:33.836Z,6.75
2023-05-13T02:42:37.259Z,9.75
2023-05-13T02:45:42.086Z,11.50
2023-05-13T02:48:46.976Z,7.00
2023-05-13T02:51:50.538Z,9.00
2023-05-13T02:54:59.616Z,9.25
2023-05-13T02:58:03.338Z,9.25
2023-05-13T03:01:07.640Z,11.50
2023-05-13T03:04:11.364Z,9.50
2023-05-13T03:07:14.872Z,9.50
2023-05-13T03:10:19.971Z,11.00
2023-05-13T03:13:23.937Z,10.00
2023-05-13T03:16:27.611Z,10.25
2023-05-13T03:19:30.997Z,8.50
2023-05-13T03:22:34.822Z,11.50
2023-05-13T03:25:39.967Z,12.00
2023-05-13T03:28:43.761Z,9.75
2023-05-13T03:31:47.682Z,8.25
2023-05-13T03:34:51.812Z,6.00
2023-05-13T03:37:55.292Z,8.25
2023-05-13T03:41:00.407Z,7.50
2023-05-13T03:44:04.122Z,11.00
2023-05-13T03:47:08.274Z,3.25
2023-05-13T03:50:12.309Z,10.00
2023-05-13T03:53:21.394Z,6.75
2023-05-13T03:56:26.729Z,9.50
2023-05-13T03:59:31.031Z,1.00
2023-05-13T04:02:34.611Z,9.00
2023-05-13T04:05:38.162Z,8.00
2023-05-13T04:08:42.031Z,7.00
2023-05-13T04:11:46.911Z,6.25
2023-05-13T04:14:50.407Z,12.00
2023-05-13T04:17:54.049Z,9.00
2023-05-13T04:20:57.540Z,9.75
2023-05-13T04:24:00.884Z,9.75
2023-05-13T04:27:06.384Z,11.50
2023-05-13T04:30:11.110Z,9.25
2023-05-13T04:33:16.830Z,11.00
2023-05-13T04:36:22.715Z,8.50
2023-05-13T04:39:26.918Z,11.00
2023-05-13T04:42:32.442Z,9.00
2023-05-13T04:45:37.368Z,6.50
2023-05-13T04:48:48.720Z,8.00
2023-05-13T04:51:52.929Z,5.00
2023-05-13T04:54:57.165Z,7.00
2023-05-13T04:58:02.286Z,7.50
2023-05-13T05:01:06.099Z,9.00
2023-05-13T05:04:09.853Z,9.00
2023-05-13T05:07:13.679Z,14.00
2023-05-13T05:10:28.170Z,9.75
2023-05-13T05:13:37.027Z,8.25
2023-05-13T05:16:41.016Z,8.00
2023-05-13T05:19:45.635Z,8.50
2023-05-13T05:22:50.312Z,9.75
2023-05-13T05:26:07.908Z,10.00
2023-05-13T05:29:17.053Z,13.00
2023-05-13T05:32:21.859Z,15.00
2023-05-13T05:35:25.515Z,9.75
2023-05-13T05:38:29.542Z,6.75
2023-05-13T05:41:35.175Z,14.50
2023-05-13T05:44:40.485Z,12.00
2023-05-13T05:47:44.476Z,12.00
2023-05-13T05:50:49.309Z,11.00
2023-05-13T05:54:00.073Z,10.50
2023-05-13T05:57:03.764Z,6.75
2023-05-13T06:00:10.552Z,11.50
2023-05-13T06:03:18.842Z,11.50
2023-05-13T06:06:22.586Z,10.50
2023-05-13T06:09:26.253Z,8.00
2023-05-13T06:12:30.181Z,11.00
2023-05-13T06:15:35.195Z,10.00
2023-05-13T06:18:39.239Z,9.50
2023-05-13T06:21:43.290Z,5.75
2023-05-13T06:24:47.186Z,15.75
2023-05-13T06:27:50.847Z,12.25
2023-05-13T06:30:59.991Z,12.75
2023-05-13T06:34:03.513Z,14.50
2023-05-13T06:37:08.061Z,12.00
2023-05-13T06:40:12.557Z,12.50
2023-05-13T06:43:18.913Z,11.50
2023-05-13T06:46:26.908Z,9.00
2023-05-13T06:49:30.574Z,12.00
2023-05-13T06:52:34.197Z,12.75
2023-05-13T06:55:41.931Z,18.50
2023-05-13T06:58:45.534Z,15.25
2023-05-13T07:01:50.551Z,8.75
2023-05-13T07:04:54.113Z,10.00
2023-05-13T07:07:57.975Z,10.00
2023-05-13T07:11:03.208Z,12.00
2023-05-13T07:14:18.199Z,11.50
2023-05-13T07:17:23.656Z,12.25
2023-05-13T07:20:27.255Z,11.75
2023-05-13T07:23:31.649Z,13.00
2023-05-13T07:26:35.204Z,7.00
2023-05-13T07:29:38.909Z,10.00
2023-05-13T07:32:44.049Z,1.75
2023-05-13T07:35:48.067Z,4.00
2023-05-13T07:38:51.799Z,7.00
2023-05-13T07:41:55.479Z,4.67
2023-05-13T07:44:58.876Z,7.33
2023-05-13T07:48:03.992Z,5.00
2023-05-13T07:51:07.675Z,7.00
2023-05-13T07:54:11.414Z,8.00
2023-05-13T07:57:15.072Z,5.67
2023-05-13T08:00:19.333Z,7.00
2023-05-13T08:03:25.092Z,4.00
2023-05-13T08:06:28.631Z,1.00
2023-05-13T08:09:32.006Z,7.00
2023-05-13T08:12:35.456Z,1.00
2023-05-13T08:15:39.377Z,5.00
2023-05-13T08:18:44.695Z,6.00
2023-05-13T08:21:48.608Z,4.67
2023-05-13T08:24:52.281Z,5.00
2023-05-13T08:27:55.984Z,3.33
2023-05-13T08:31:02.703Z,5.33
2023-05-13T08:34:09.038Z,4.33
2023-05-13T08:37:12.471Z,2.67
2023-05-13T08:40:16.459Z,2.00
2023-05-13T08:43:20.928Z,2.00
2023-05-13T08:46:26.000Z,0.00
2023-05-13T08:49:31.054Z,4.33
2023-05-13T08:52:34.503Z,1.00
2023-05-13T08:55:39.780Z,1.00
2023-05-13T08:58:43.163Z,2.67
2023-05-13T09:01:47.076Z,4.00
2023-05-13T09:04:56.181Z,2.00
2023-05-13T09:07:59.842Z,2.00
2023-05-13T09:11:03.645Z,1.00
2023-05-13T09:14:08.494Z,2.00
2023-05-13T09:17:12.299Z,4.00
2023-05-13T09:20:18.687Z,1.00
2023-05-13T09:23:25.455Z,5.00
2023-05-13T09:26:29.451Z,1.00
2023-05-13T09:29:33.757Z,2.00
2023-05-13T09:32:37.148Z,0.00
2023-05-13T09:35:43.951Z,4.67
2023-05-13T09:38:48.184Z,1.00
2023-05-13T09:41:51.674Z,2.00
2023-05-13T09:44:55.368Z,2.00
2023-05-13T09:47:59.055Z,6.00
2023-05-13T09:51:03.920Z,1.00
2023-05-13T09:54:08.212Z,2.00
2023-05-13T09:57:14.307Z,1.00
2023-05-13T10:00:31.697Z,1.67
2023-05-13T10:03:36.633Z,5.00
2023-05-13T10:06:41.771Z,3.67
2023-05-13T10:09:48.199Z,1.00
2023-05-13T10:12:54.004Z,1.00
2023-05-13T10:15:57.632Z,2.00
2023-05-13T10:19:01.967Z,1.00
2023-05-13T10:22:07.919Z,1.00
2023-05-13T10:25:12.940Z,5.33
2023-05-13T10:28:17.185Z,5.33
2023-05-13T10:31:20.829Z,0.00
2023-05-13T10:34:27.313Z,4.33
2023-05-13T10:38:01.771Z,2.00
2023-05-13T10:41:13.233Z,1.67
2023-05-13T10:44:16.788Z,2.00
2023-05-13T10:47:20.485Z,2.67
2023-05-13T10:50:25.519Z,4.33
2023-05-13T10:53:33.129Z,3.00
2023-05-13T10:56:37.763Z,2.00
2023-05-13T11:00:20.069Z,3.00
2023-05-13T11:03:31.079Z,6.67
2023-05-13T11:06:36.892Z,3.33
2023-05-13T11:09:40.420Z,4.33
2023-05-13T11:12:43.868Z,3.33
2023-05-13T11:15:51.132Z,2.00
2023-05-13T11:18:54.929Z,4.33
2023-05-13T11:22:00.459Z,4.67
2023-05-13T11:25:09.605Z,5.00
2023-05-13T11:28:16.669Z,2.33
2023-05-13T11:31:22.844Z,4.00
2023-05-13T11:34:26.669Z,3.33
2023-05-13T11:37:32.826Z,4.00
2023-05-13T11:40:39.135Z,6.33
2023-05-13T11:43:42.854Z,3.33
2023-05-13T11:46:56.389Z,2.00
2023-05-13T11:49:59.881Z,2.00
2023-05-13T11:53:03.638Z,2.00
2023-05-13T11:56:12.948Z,2.67
2023-05-13T11:59:16.760Z,4.00
2023-05-13T12:02:25.314Z,3.00
2023-05-13T12:05:30.413Z,0.00
2023-05-13T12:08:34.506Z,1.00
2023-05-13T12:11:38.194Z,2.67
2023-05-13T12:14:43.768Z,5.00
2023-05-13T12:17:50.871Z,2.67
2023-05-13T12:20:54.646Z,3.67
2023-05-13T12:23:58.847Z,1.33
2023-05-13T12:27:08.624Z,3.33
2023-05-13T12:30:16.630Z,4.33
2023-05-13T12:33:23.361Z,2.67
2023-05-13T12:36:35.969Z,1.00
2023-05-13T12:39:39.755Z,2.00
2023-05-13T12:42:46.345Z,2.00
2023-05-13T12:45:55.022Z,4.00
2023-05-13T12:49:01.555Z,2.67
2023-05-13T12:52:05.792Z,1.00
2023-05-13T12:55:10.562Z,2.67
2023-05-13T12:58:14.896Z,5.00
2023-05-13T13:01:19.016Z,4.33
2023-05-13T13:04:23.920Z,2.67
2023-05-13T13:07:27.566Z,1.00
2023-05-13T13:10:31.234Z,5.00
2023-05-13T13:13:36.688Z,1.00
2023-05-13T13:16:41.704Z,2.00
2023-05-13T13:19:46.743Z,4.33
2023-05-13T13:22:50.201Z,5.00
2023-05-13T13:25:53.701Z,5.33
2023-05-13T13:28:57.112Z,6.00
2023-05-13T13:32:00.742Z,5.00
2023-05-13T13:35:06.149Z,5.00
2023-05-13T13:38:09.886Z,4.67
2023-05-13T13:41:13.374Z,5.00
2023-05-13T13:44:16.942Z,7.33
2023-05-13T13:47:20.535Z,5.33
2023-05-13T13:50:25.761Z,5.00
2023-05-13T13:53:29.408Z,2.00
2023-05-13T13:56:33.031Z,5.33
2023-05-13T13:59:36.624Z,5.33
2023-05-13T14:02:41.072Z,5.00
2023-05-13T14:05:46.151Z,5.00
2023-05-13T14:08:51.164Z,4.67
2023-05-13T14:11:54.597Z,5.00
2023-05-13T14:14:58.295Z,5.00
2023-05-13T14:18:01.797Z,5.67
2023-05-13T14:21:10.878Z,7.00
2023-05-13T14:24:14.522Z,6.00
2023-05-13T14:27:18.025Z,6.67
2023-05-13T14:30:21.659Z,5.00
2023-05-13T14:33:25.798Z,3.00
2023-05-13T14:36:31.541Z,3.67
2023-05-13T14:39:35.131Z,1.00
2023-05-13T14:42:39.025Z,5.67
2023-05-13T14:45:43.170Z,3.00
2023-05-13T14:48:46.837Z,5.00
2023-05-13T14:51:51.883Z,6.33
2023-05-13T14:54:56.247Z,6.00
2023-05-13T14:57:59.808Z,3.00
2023-05-13T15:01:03.747Z,5.67
2023-05-13T15:04:07.510Z,5.67
2023-05-13T15:07:12.790Z,6.00
2023-05-13T15:10:16.403Z,4.33
2023-05-13T15:13:20.279Z,3.00
2023-05-13T15:16:23.983Z,2.33
2023-05-13T15:19:27.481Z,6.67
2023-05-13T15:22:34.088Z,2.00
2023-05-13T15:25:38.350Z,5.00
2023-05-13T15:28:42.077Z,5.00
2023-05-13T15:31:45.679Z,5.00
2023-05-13T15:34:49.451Z,5.00
2023-05-13T15:37:54.444Z,5.00
2023-05-13T15:40:57.945Z,0.00
2023-05-13T15:44:01.557Z,3.00
2023-05-13T15:47:06.226Z,5.00
2023-05-13T15:50:10.822Z,5.33
2023-05-13T15:53:16.199Z,3.00
2023-05-13T15:56:19.784Z,3.33
2023-05-13T15:59:23.331Z,0.67
2023-05-13T16:02:29.287Z,2.00
2023-05-13T16:05:33.572Z,1.67
2023-05-13T16:08:38.388Z,2.67
2023-05-13T16:11:42.724Z,2.67
2023-05-13T16:14:46.160Z,6.00
2023-05-13T16:17:49.678Z,6.33
2023-05-13T16:20:53.485Z,5.33
2023-05-13T16:23:58.558Z,5.00
2023-05-13T16:27:02.088Z,3.33
2023-05-13T16:30:07.456Z,5.00
2023-05-13T16:33:11.801Z,5.00
2023-05-13T16:36:15.603Z,5.00
2023-05-13T16:39:20.389Z,4.00
2023-05-13T16:42:24.390Z,3.33
2023-05-13T16:45:27.866Z,2.00
2023-05-13T16:48:31.396Z,2.00
2023-05-13T16:51:35.039Z,3.00
2023-05-13T16:54:40.037Z,1.00
2023-05-13T16:57:43.883Z,4.00
2023-05-13T17:00:47.342Z,3.33
2023-05-13T17:03:50.779Z,2.00
2023-05-13T17:06:55.795Z,4.33
2023-05-13T17:10:02.629Z,3.33
2023-05-13T17:13:06.131Z,2.00
2023-05-13T17:16:10.100Z,5.00
2023-05-13T17:19:13.571Z,4.67
2023-05-13T17:22:17.119Z,5.33
2023-05-13T17:25:21.894Z,4.00
2023-05-13T17:28:25.764Z,4.33
2023-05-13T17:31:29.623Z,2.00
2023-05-13T17:34:33.868Z,2.00
2023-05-13T17:37:37.710Z,4.33
2023-05-13T17:40:42.588Z,5.00
2023-05-13T17:43:45.994Z,4.00
2023-05-13T17:46:49.336Z,5.00
2023-05-13T17:49:52.678Z,4.00
2023-05-13T17:52:56.035Z,2.00
2023-05-13T17:56:01.078Z,4.67
2023-05-13T17:59:06.356Z,3.33
2023-05-13T18:02:09.884Z,2.00
2023-05-13T18:05:14.484Z,4.00
2023-05-13T18:08:18.034Z,4.00
2023-05-13T18:11:23.029Z,1.00
2023-05-13T18:14:26.460Z,4.00
2023-05-13T18:17:30.213Z,2.00
2023-05-13T18:20:34.395Z,6.33
2023-05-13T18:23:37.811Z,2.00
2023-05-13T18:26:43.108Z,5.00
2023-05-13T18:29:47.926Z,7.67
2023-05-13T18:32:52.022Z,7.00
2023-05-13T18:35:55.489Z,4.00
2023-05-13T18:38:59.483Z,5.00
2023-05-13T18:42:04.634Z,7.00
2023-05-13T18:45:09.108Z,4.00
2023-05-13T18:48:12.719Z,5.00
2023-05-13T18:51:16.580Z,5.00
2023-05-13T18:54:20.128Z,4.33
2023-05-13T18:57:25.252Z,7.00
2023-05-13T19:00:28.832Z,4.33
2023-05-13T19:03:32.525Z,7.67
2023-05-13T19:06:38.061Z,6.00
2023-05-13T19:09:41.776Z,5.67
2023-05-13T19:12:46.646Z,6.33
2023-05-13T19:15:50.281Z,9.00
2023-05-13T19:18:54.649Z,9.33
2023-05-13T19:21:58.173Z,10.00
2023-05-13T19:25:01.672Z,10.67
2023-05-13T19:28:06.676Z,9.00
2023-05-13T19:31:10.140Z,9.00
2023-05-13T19:34:14.710Z,7.50
2023-05-13T19:37:18.193Z,6.00
2023-05-13T19:40:22.196Z,8.50
2023-05-13T19:43:27.324Z,12.25
2023-05-13T19:46:31.234Z,10.50
2023-05-13T19:49:34.810Z,10.50
2023-05-13T19:52:38.224Z,12.25
2023-05-13T19:55:41.741Z,9.25
2023-05-13T19:58:46.574Z,11.50
2023-05-13T20:01:50.224Z,9.25
2023-05-13T20:04:53.700Z,10.00
2023-05-13T20:07:57.128Z,12.00
2023-05-13T20:11:00.936Z,8.50
2023-05-13T20:14:06.017Z,8.50
2023-05-13T20:17:09.460Z,9.00
2023-05-13T20:20:13.790Z,8.00
2023-05-13T20:23:17.222Z,9.50
2023-05-13T20:26:20.603Z,12.00
2023-05-13T20:29:25.531Z,10.00
2023-05-13T20:32:29.301Z,10.00
2023-05-13T20:35:32.995Z,10.50
2023-05-13T20:38:36.586Z,7.00
2023-05-13T20:41:40.220Z,7.50
2023-05-13T20:44:46.474Z,9.00
2023-05-13T20:47:49.906Z,6.50
2023-05-13T20:51:00.025Z,9.00
2023-05-13T20:54:03.468Z,5.50
2023-05-13T20:57:07.223Z,7.00
2023-05-13T21:00:14.023Z,6.75
2023-05-13T21:03:17.958Z,7.50
2023-05-13T21:06:24.731Z,6.25
2023-05-13T21:09:28.115Z,7.50
2023-05-13T21:12:31.532Z,6.75
2023-05-13T21:15:36.617Z,6.00
2023-05-13T21:18:40.508Z,6.75
2023-05-13T21:21:44.028Z,6.25
2023-05-13T21:24:47.984Z,7.50
2023-05-13T21:27:51.406Z,6.00
2023-05-13T21:30:56.231Z,6.00
2023-05-13T21:33:59.596Z,7.00
2023-05-13T21:37:05.337Z,6.50
2023-05-13T21:40:10.234Z,5.50
2023-05-13T21:43:13.900Z,12.25
2023-05-13T21:46:18.732Z,4.50
2023-05-13T21:49:22.150Z,6.00
2023-05-13T21:52:25.542Z,4.00
2023-05-13T21:55:28.953Z,6.25
2023-05-13T21:58:32.330Z,6.25
2023-05-13T22:01:38.056Z,6.00
2023-05-13T22:04:41.809Z,6.25
2023-05-13T22:07:45.225Z,4.00
2023-05-13T22:10:48.777Z,5.75
2023-05-13T22:13:52.388Z,3.50
2023-05-13T22:17:08.440Z,6.50
2023-05-13T22:20:14.075Z,6.00
2023-05-13T22:23:17.419Z,8.50
2023-05-13T22:26:21.964Z,6.00
2023-05-13T22:29:25.434Z,7.00
2023-05-13T22:32:30.664Z,7.00
2023-05-13T22:35:36.572Z,8.50
2023-05-13T22:38:40.744Z,6.00
2023-05-13T22:41:44.642Z,6.75
2023-05-13T22:44:48.132Z,4.00
2023-05-13T22:47:53.067Z,6.50
2023-05-13T22:50:58.415Z,5.50
2023-05-13T22:54:02.266Z,7.00
2023-05-13T22:57:05.945Z,6.75
2023-05-13T23:00:10.558Z,9.50
2023-05-13T23:03:15.367Z,8.50
2023-05-13T23:06:18.841Z,0.75
2023-05-13T23:09:22.326Z,8.00
2023-05-13T23:12:26.802Z,7.00
2023-05-13T23:15:30.237Z,7.00
2023-05-13T23:18:35.490Z,10.00
2023-05-13T23:21:39.019Z,9.25
2023-05-13T23:24:42.677Z,10.00
2023-05-13T23:27:46.088Z,3.25
2023-05-13T23:30:49.482Z,9.50
2023-05-13T23:33:54.665Z,6.75
2023-05-13T23:36:58.248Z,9.75
2023-05-13T23:40:02.501Z,13.00
2023-05-13T23:43:06.099Z,9.00
2023-05-13T23:46:09.820Z,10.00
2023-05-13T23:49:14.744Z,12.00
2023-05-13T23:52:18.476Z,9.75
2023-05-13T23:55:22.544Z,13.25
2023-05-13T23:58:26.032Z,9.00
